sensor_id;sensor_type;location;lat;lon;timestamp;temperature;humidity
59311;DHT22;45078;51.654;21.250;2022-12-18T00:02:17;-5.00;99.90
59311;DHT22;45078;51.654;21.250;2022-12-18T00:04:43;-4.90;99.90
59311;DHT22;45078;51.654;21.250;2022-12-18T00:07:09;-4.90;99.90
59311;DHT22;45078;51.654;21.250;2022-12-18T00:09:34;-4.90;99.90
59311;DHT22;45078;51.654;21.250;2022-12-18T00:12:00;-4.90;99.90
59311;DHT22;45078;51.654;21.250;2022-12-18T00:14:26;-4.80;99.90
59311;DHT22;45078;51.654;21.250;2022-12-18T00:16:52;-4.80;99.90
59311;DHT22;45078;51.654;21.250;2022-12-18T00:19:17;-4.80;99.90
59311;DHT22;45078;51.654;21.250;2022-12-18T00:21:44;-4.80;99.90
59311;DHT22;45078;51.654;21.250;2022-12-18T00:24:10;-4.70;99.90
59311;DHT22;45078;51.654;21.250;2022-12-18T00:26:37;-4.70;99.90
59311;DHT22;45078;51.654;21.250;2022-12-18T00:29:10;-4.70;99.90
59311;DHT22;45078;51.654;21.250;2022-12-18T00:31:37;-4.70;99.90
59311;DHT22;45078;51.654;21.250;2022-12-18T00:34:03;-4.70;99.90
59311;DHT22;45078;51.654;21.250;2022-12-18T00:36:31;-4.70;99.90
59311;DHT22;45078;51.654;21.250;2022-12-18T00:39:00;-4.60;99.90
59311;DHT22;45078;51.654;21.250;2022-12-18T00:41:28;-4.60;99.90
59311;DHT22;45078;51.654;21.250;2022-12-18T00:46:48;-4.60;99.90
59311;DHT22;45078;51.654;21.250;2022-12-18T00:49:18;-4.60;99.90
59311;DHT22;45078;51.654;21.250;2022-12-18T00:51:44;-4.60;99.90
59311;DHT22;45078;51.654;21.250;2022-12-18T00:54:10;-4.50;99.90
59311;DHT22;45078;51.654;21.250;2022-12-18T00:56:37;-4.50;99.90
59311;DHT22;45078;51.654;21.250;2022-12-18T00:59:04;-4.50;99.90
59311;DHT22;45078;51.654;21.250;2022-12-18T01:01:30;-4.40;99.90
59311;DHT22;45078;51.654;21.250;2022-12-18T01:03:57;-4.50;99.90
59311;DHT22;45078;51.654;21.250;2022-12-18T01:06:23;-4.40;99.90
59311;DHT22;45078;51.654;21.250;2022-12-18T01:08:48;-4.40;99.90
59311;DHT22;45078;51.654;21.250;2022-12-18T01:11:16;-4.30;99.90
59311;DHT22;45078;51.654;21.250;2022-12-18T01:13:44;-4.30;99.90
59311;DHT22;45078;51.654;21.250;2022-12-18T01:16:15;-4.30;99.90
59311;DHT22;45078;51.654;21.250;2022-12-18T01:18:41;-4.30;99.90
59311;DHT22;45078;51.654;21.250;2022-12-18T01:21:12;-4.30;99.90
59311;DHT22;45078;51.654;21.250;2022-12-18T01:23:38;-4.20;99.90
59311;DHT22;45078;51.654;21.250;2022-12-18T01:26:09;-4.20;99.90
59311;DHT22;45078;51.654;21.250;2022-12-18T01:28:36;-4.20;99.90
59311;DHT22;45078;51.654;21.250;2022-12-18T01:31:17;-4.20;99.90
59311;DHT22;45078;51.654;21.250;2022-12-18T01:33:44;-4.20;99.90
59311;DHT22;45078;51.654;21.250;2022-12-18T01:36:15;-4.20;99.90
59311;DHT22;45078;51.654;21.250;2022-12-18T01:38:41;-4.20;99.90
59311;DHT22;45078;51.654;21.250;2022-12-18T01:41:08;-4.20;99.90
59311;DHT22;45078;51.654;21.250;2022-12-18T01:43:50;-4.10;99.90
59311;DHT22;45078;51.654;21.250;2022-12-18T01:46:20;-4.10;99.90
59311;DHT22;45078;51.654;21.250;2022-12-18T01:48:48;-4.10;99.90
59311;DHT22;45078;51.654;21.250;2022-12-18T01:51:15;-4.00;99.90
59311;DHT22;45078;51.654;21.250;2022-12-18T01:53:42;-4.00;99.90
59311;DHT22;45078;51.654;21.250;2022-12-18T01:56:14;-4.00;99.90
59311;DHT22;45078;51.654;21.250;2022-12-18T01:58:59;-4.00;99.90
59311;DHT22;45078;51.654;21.250;2022-12-18T02:01:26;-4.00;99.90
59311;DHT22;45078;51.654;21.250;2022-12-18T02:03:53;-4.00;99.90
59311;DHT22;45078;51.654;21.250;2022-12-18T02:06:40;-3.90;99.90
59311;DHT22;45078;51.654;21.250;2022-12-18T02:09:22;-3.90;99.90
59311;DHT22;45078;51.654;21.250;2022-12-18T02:11:53;-3.90;99.90
59311;DHT22;45078;51.654;21.250;2022-12-18T02:14:31;-3.90;99.90
59311;DHT22;45078;51.654;21.250;2022-12-18T02:27:51;-3.80;99.90
59311;DHT22;45078;51.654;21.250;2022-12-18T02:30:18;-3.80;99.90
59311;DHT22;45078;51.654;21.250;2022-12-18T02:32:51;-3.80;99.90
59311;DHT22;45078;51.654;21.250;2022-12-18T02:35:23;-3.80;99.90
59311;DHT22;45078;51.654;21.250;2022-12-18T02:37:51;-3.80;99.90
59311;DHT22;45078;51.654;21.250;2022-12-18T02:40:19;-3.80;99.90
59311;DHT22;45078;51.654;21.250;2022-12-18T02:42:45;-3.80;99.90
59311;DHT22;45078;51.654;21.250;2022-12-18T02:45:11;-3.80;99.90
59311;DHT22;45078;51.654;21.250;2022-12-18T02:47:39;-3.70;99.90
59311;DHT22;45078;51.654;21.250;2022-12-18T02:50:34;-3.70;99.90
59311;DHT22;45078;51.654;21.250;2022-12-18T03:04:20;-3.60;99.90
59311;DHT22;45078;51.654;21.250;2022-12-18T03:06:54;-3.60;99.90
59311;DHT22;45078;51.654;21.250;2022-12-18T03:09:36;-3.60;99.90
59311;DHT22;45078;51.654;21.250;2022-12-18T03:12:18;-3.60;99.90
59311;DHT22;45078;51.654;21.250;2022-12-18T03:17:25;-3.60;99.90
59311;DHT22;45078;51.654;21.250;2022-12-18T03:19:54;-3.60;99.90
59311;DHT22;45078;51.654;21.250;2022-12-18T03:22:23;-3.50;99.90
59311;DHT22;45078;51.654;21.250;2022-12-18T03:24:51;-3.50;99.90
59311;DHT22;45078;51.654;21.250;2022-12-18T03:27:21;-3.50;99.90
59311;DHT22;45078;51.654;21.250;2022-12-18T03:30:00;-3.50;99.90
59311;DHT22;45078;51.654;21.250;2022-12-18T03:32:43;-3.50;99.90
59311;DHT22;45078;51.654;21.250;2022-12-18T03:35:12;-3.50;99.90
59311;DHT22;45078;51.654;21.250;2022-12-18T03:37:39;-3.50;99.90
59311;DHT22;45078;51.654;21.250;2022-12-18T03:40:06;-3.50;99.90
59311;DHT22;45078;51.654;21.250;2022-12-18T03:42:52;-3.50;99.90
59311;DHT22;45078;51.654;21.250;2022-12-18T03:48:09;-3.50;99.90
59311;DHT22;45078;51.654;21.250;2022-12-18T03:50:59;-3.50;99.90
59311;DHT22;45078;51.654;21.250;2022-12-18T03:56:11;-3.50;99.90
59311;DHT22;45078;51.654;21.250;2022-12-18T03:58:40;-3.50;99.90
59311;DHT22;45078;51.654;21.250;2022-12-18T04:01:08;-3.50;99.90
59311;DHT22;45078;51.654;21.250;2022-12-18T04:03:36;-3.50;99.90
59311;DHT22;45078;51.654;21.250;2022-12-18T04:06:03;-3.50;99.90
59311;DHT22;45078;51.654;21.250;2022-12-18T04:08:29;-3.50;99.90
59311;DHT22;45078;51.654;21.250;2022-12-18T04:10:55;-3.50;99.90
59311;DHT22;45078;51.654;21.250;2022-12-18T04:13:28;-3.50;99.90
59311;DHT22;45078;51.654;21.250;2022-12-18T04:15:54;-3.50;99.90
59311;DHT22;45078;51.654;21.250;2022-12-18T04:18:20;-3.50;99.90
59311;DHT22;45078;51.654;21.250;2022-12-18T04:20:46;-3.60;99.90
59311;DHT22;45078;51.654;21.250;2022-12-18T04:23:14;-3.60;99.90
59311;DHT22;45078;51.654;21.250;2022-12-18T04:25:40;-3.60;99.90
59311;DHT22;45078;51.654;21.250;2022-12-18T04:28:06;-3.50;99.90
59311;DHT22;45078;51.654;21.250;2022-12-18T04:30:32;-3.60;99.90
59311;DHT22;45078;51.654;21.250;2022-12-18T04:32:57;-3.60;99.90
59311;DHT22;45078;51.654;21.250;2022-12-18T04:35:23;-3.60;99.90
59311;DHT22;45078;51.654;21.250;2022-12-18T04:37:49;-3.60;99.90
59311;DHT22;45078;51.654;21.250;2022-12-18T04:40:15;-3.60;99.90
59311;DHT22;45078;51.654;21.250;2022-12-18T04:42:41;-3.60;99.90
59311;DHT22;45078;51.654;21.250;2022-12-18T04:45:07;-3.70;99.90
59311;DHT22;45078;51.654;21.250;2022-12-18T04:47:33;-3.70;99.90
59311;DHT22;45078;51.654;21.250;2022-12-18T04:49:59;-3.70;99.90
59311;DHT22;45078;51.654;21.250;2022-12-18T04:52:25;-3.70;99.90
59311;DHT22;45078;51.654;21.250;2022-12-18T04:54:51;-3.70;99.90
59311;DHT22;45078;51.654;21.250;2022-12-18T04:57:16;-3.80;99.90
59311;DHT22;45078;51.654;21.250;2022-12-18T04:59:44;-3.70;99.90
59311;DHT22;45078;51.654;21.250;2022-12-18T05:02:10;-3.70;99.90
59311;DHT22;45078;51.654;21.250;2022-12-18T05:04:35;-3.70;99.90
59311;DHT22;45078;51.654;21.250;2022-12-18T05:07:01;-3.80;99.90
59311;DHT22;45078;51.654;21.250;2022-12-18T05:09:27;-3.80;99.90
59311;DHT22;45078;51.654;21.250;2022-12-18T05:11:53;-3.70;99.90
59311;DHT22;45078;51.654;21.250;2022-12-18T05:14:19;-3.70;99.90
59311;DHT22;45078;51.654;21.250;2022-12-18T05:16:45;-3.70;99.90
59311;DHT22;45078;51.654;21.250;2022-12-18T05:19:11;-3.80;99.90
59311;DHT22;45078;51.654;21.250;2022-12-18T05:21:37;-3.80;99.90
59311;DHT22;45078;51.654;21.250;2022-12-18T05:24:03;-3.80;99.90
59311;DHT22;45078;51.654;21.250;2022-12-18T05:26:29;-3.80;99.90
59311;DHT22;45078;51.654;21.250;2022-12-18T05:28:56;-3.80;99.90
59311;DHT22;45078;51.654;21.250;2022-12-18T05:31:22;-3.80;99.90
59311;DHT22;45078;51.654;21.250;2022-12-18T05:33:48;-3.90;99.90
59311;DHT22;45078;51.654;21.250;2022-12-18T05:36:14;-3.90;99.90
59311;DHT22;45078;51.654;21.250;2022-12-18T05:38:40;-3.90;99.90
59311;DHT22;45078;51.654;21.250;2022-12-18T05:41:07;-3.90;99.90
59311;DHT22;45078;51.654;21.250;2022-12-18T05:43:35;-3.90;99.90
59311;DHT22;45078;51.654;21.250;2022-12-18T05:46:12;-4.00;99.90
59311;DHT22;45078;51.654;21.250;2022-12-18T05:48:38;-4.00;99.90
59311;DHT22;45078;51.654;21.250;2022-12-18T05:51:07;-4.00;99.90
59311;DHT22;45078;51.654;21.250;2022-12-18T05:53:33;-4.00;99.90
59311;DHT22;45078;51.654;21.250;2022-12-18T05:56:01;-4.00;99.90
59311;DHT22;45078;51.654;21.250;2022-12-18T05:58:27;-4.00;99.90
59311;DHT22;45078;51.654;21.250;2022-12-18T06:00:53;-4.00;99.90
59311;DHT22;45078;51.654;21.250;2022-12-18T06:03:19;-4.00;99.90
59311;DHT22;45078;51.654;21.250;2022-12-18T06:05:45;-4.00;99.90
59311;DHT22;45078;51.654;21.250;2022-12-18T06:08:12;-4.00;99.90
59311;DHT22;45078;51.654;21.250;2022-12-18T06:10:39;-4.00;99.90
59311;DHT22;45078;51.654;21.250;2022-12-18T06:13:05;-4.10;99.90
59311;DHT22;45078;51.654;21.250;2022-12-18T06:15:31;-4.10;99.90
59311;DHT22;45078;51.654;21.250;2022-12-18T06:17:57;-4.10;99.90
59311;DHT22;45078;51.654;21.250;2022-12-18T06:20:23;-4.10;99.90
59311;DHT22;45078;51.654;21.250;2022-12-18T06:22:49;-4.10;99.90
59311;DHT22;45078;51.654;21.250;2022-12-18T06:25:15;-4.10;99.90
59311;DHT22;45078;51.654;21.250;2022-12-18T06:27:41;-4.10;99.90
59311;DHT22;45078;51.654;21.250;2022-12-18T06:30:08;-4.10;99.90
59311;DHT22;45078;51.654;21.250;2022-12-18T06:32:34;-4.10;99.90
59311;DHT22;45078;51.654;21.250;2022-12-18T06:35:00;-4.10;99.90
59311;DHT22;45078;51.654;21.250;2022-12-18T06:37:26;-4.10;99.90
59311;DHT22;45078;51.654;21.250;2022-12-18T06:39:52;-4.10;99.90
59311;DHT22;45078;51.654;21.250;2022-12-18T06:42:24;-4.10;99.90
59311;DHT22;45078;51.654;21.250;2022-12-18T06:44:49;-4.10;99.90
59311;DHT22;45078;51.654;21.250;2022-12-18T06:47:15;-4.10;99.90
59311;DHT22;45078;51.654;21.250;2022-12-18T06:49:41;-4.00;99.90
59311;DHT22;45078;51.654;21.250;2022-12-18T06:52:07;-4.00;99.90
59311;DHT22;45078;51.654;21.250;2022-12-18T06:54:33;-4.00;99.90
59311;DHT22;45078;51.654;21.250;2022-12-18T06:56:58;-4.10;99.90
59311;DHT22;45078;51.654;21.250;2022-12-18T06:59:24;-4.10;99.90
59311;DHT22;45078;51.654;21.250;2022-12-18T07:01:50;-4.00;99.90
59311;DHT22;45078;51.654;21.250;2022-12-18T07:04:16;-4.00;99.90
59311;DHT22;45078;51.654;21.250;2022-12-18T07:06:42;-4.00;99.90
59311;DHT22;45078;51.654;21.250;2022-12-18T07:09:07;-4.00;99.90
59311;DHT22;45078;51.654;21.250;2022-12-18T07:11:33;-4.00;99.90
59311;DHT22;45078;51.654;21.250;2022-12-18T07:13:59;-4.00;99.90
59311;DHT22;45078;51.654;21.250;2022-12-18T07:16:26;-4.00;99.90
59311;DHT22;45078;51.654;21.250;2022-12-18T07:18:55;-4.00;99.90
59311;DHT22;45078;51.654;21.250;2022-12-18T07:21:22;-4.00;99.90
59311;DHT22;45078;51.654;21.250;2022-12-18T07:23:48;-4.00;99.90
59311;DHT22;45078;51.654;21.250;2022-12-18T07:26:17;-4.00;99.90
59311;DHT22;45078;51.654;21.250;2022-12-18T07:28:42;-4.00;99.90
59311;DHT22;45078;51.654;21.250;2022-12-18T07:31:16;-4.00;99.90
59311;DHT22;45078;51.654;21.250;2022-12-18T07:33:43;-4.00;99.90
59311;DHT22;45078;51.654;21.250;2022-12-18T07:36:10;-4.00;99.90
59311;DHT22;45078;51.654;21.250;2022-12-18T07:38:36;-4.00;99.90
59311;DHT22;45078;51.654;21.250;2022-12-18T07:41:10;-4.00;99.90
59311;DHT22;45078;51.654;21.250;2022-12-18T07:43:36;-4.00;99.90
59311;DHT22;45078;51.654;21.250;2022-12-18T07:46:02;-3.90;99.90
59311;DHT22;45078;51.654;21.250;2022-12-18T07:48:28;-3.90;99.90
59311;DHT22;45078;51.654;21.250;2022-12-18T07:51:02;-3.90;99.90
59311;DHT22;45078;51.654;21.250;2022-12-18T07:53:30;-3.90;99.90
59311;DHT22;45078;51.654;21.250;2022-12-18T07:56:05;-3.90;99.90
59311;DHT22;45078;51.654;21.250;2022-12-18T07:58:31;-3.80;99.90
59311;DHT22;45078;51.654;21.250;2022-12-18T08:01:15;-3.90;99.90
59311;DHT22;45078;51.654;21.250;2022-12-18T08:03:41;-3.90;99.90
59311;DHT22;45078;51.654;21.250;2022-12-18T08:06:09;-3.90;99.90
59311;DHT22;45078;51.654;21.250;2022-12-18T08:08:35;-3.90;99.90
59311;DHT22;45078;51.654;21.250;2022-12-18T08:11:01;-3.80;99.90
59311;DHT22;45078;51.654;21.250;2022-12-18T08:13:27;-3.80;99.90
59311;DHT22;45078;51.654;21.250;2022-12-18T08:16:01;-3.80;99.90
59311;DHT22;45078;51.654;21.250;2022-12-18T08:18:28;-3.80;99.90
59311;DHT22;45078;51.654;21.250;2022-12-18T08:20:55;-3.70;99.90
59311;DHT22;45078;51.654;21.250;2022-12-18T08:23:21;-3.70;99.90
59311;DHT22;45078;51.654;21.250;2022-12-18T08:25:47;-3.60;99.90
59311;DHT22;45078;51.654;21.250;2022-12-18T08:28:16;-3.60;99.90
59311;DHT22;45078;51.654;21.250;2022-12-18T08:30:42;-3.60;99.90
59311;DHT22;45078;51.654;21.250;2022-12-18T08:33:08;-3.50;99.90
59311;DHT22;45078;51.654;21.250;2022-12-18T08:35:35;-3.50;99.90
59311;DHT22;45078;51.654;21.250;2022-12-18T08:38:02;-3.50;99.90
59311;DHT22;45078;51.654;21.250;2022-12-18T08:40:28;-3.60;99.90
59311;DHT22;45078;51.654;21.250;2022-12-18T08:42:54;-3.60;99.90
59311;DHT22;45078;51.654;21.250;2022-12-18T08:45:39;-3.50;99.90
59311;DHT22;45078;51.654;21.250;2022-12-18T08:48:05;-3.50;99.90
59311;DHT22;45078;51.654;21.250;2022-12-18T08:50:30;-3.60;99.90
59311;DHT22;45078;51.654;21.250;2022-12-18T08:52:56;-3.60;99.90
59311;DHT22;45078;51.654;21.250;2022-12-18T08:55:22;-3.60;99.90
59311;DHT22;45078;51.654;21.250;2022-12-18T08:57:49;-3.60;99.90
59311;DHT22;45078;51.654;21.250;2022-12-18T09:00:15;-3.60;99.90
59311;DHT22;45078;51.654;21.250;2022-12-18T09:02:41;-3.60;99.90
59311;DHT22;45078;51.654;21.250;2022-12-18T09:05:07;-3.60;99.90
59311;DHT22;45078;51.654;21.250;2022-12-18T09:07:33;-3.70;99.90
59311;DHT22;45078;51.654;21.250;2022-12-18T09:09:58;-3.70;99.90
59311;DHT22;45078;51.654;21.250;2022-12-18T09:12:25;-3.60;99.90
59311;DHT22;45078;51.654;21.250;2022-12-18T09:14:51;-3.60;99.90
59311;DHT22;45078;51.654;21.250;2022-12-18T09:17:17;-3.60;99.90
59311;DHT22;45078;51.654;21.250;2022-12-18T09:19:42;-3.60;99.90
59311;DHT22;45078;51.654;21.250;2022-12-18T09:22:08;-3.50;99.90
59311;DHT22;45078;51.654;21.250;2022-12-18T09:24:35;-3.40;99.90
59311;DHT22;45078;51.654;21.250;2022-12-18T09:27:01;-3.40;99.90
59311;DHT22;45078;51.654;21.250;2022-12-18T09:29:27;-3.30;99.90
59311;DHT22;45078;51.654;21.250;2022-12-18T09:31:52;-3.40;99.90
59311;DHT22;45078;51.654;21.250;2022-12-18T09:34:18;-3.40;99.90
59311;DHT22;45078;51.654;21.250;2022-12-18T09:36:47;-3.40;99.90
59311;DHT22;45078;51.654;21.250;2022-12-18T09:39:13;-3.30;99.90
59311;DHT22;45078;51.654;21.250;2022-12-18T09:44:16;-3.30;99.90
59311;DHT22;45078;51.654;21.250;2022-12-18T09:46:47;-3.20;99.90
59311;DHT22;45078;51.654;21.250;2022-12-18T09:49:18;-3.20;99.90
59311;DHT22;45078;51.654;21.250;2022-12-18T09:51:50;-3.30;99.90
59311;DHT22;45078;51.654;21.250;2022-12-18T09:54:30;-3.30;99.90
59311;DHT22;45078;51.654;21.250;2022-12-18T09:56:57;-3.30;99.90
59311;DHT22;45078;51.654;21.250;2022-12-18T09:59:33;-3.20;99.90
59311;DHT22;45078;51.654;21.250;2022-12-18T10:07:40;-2.90;99.90
59311;DHT22;45078;51.654;21.250;2022-12-18T10:10:31;-2.70;99.90
59311;DHT22;45078;51.654;21.250;2022-12-18T10:20:59;-3.10;99.90
59311;DHT22;45078;51.654;21.250;2022-12-18T10:26:00;-3.10;99.90
59311;DHT22;45078;51.654;21.250;2022-12-18T10:28:30;-3.20;99.90
59311;DHT22;45078;51.654;21.250;2022-12-18T10:30:56;-3.20;99.90
59311;DHT22;45078;51.654;21.250;2022-12-18T10:33:24;-3.10;99.90
59311;DHT22;45078;51.654;21.250;2022-12-18T10:35:53;-3.00;99.90
59311;DHT22;45078;51.654;21.250;2022-12-18T10:38:24;-2.90;99.90
59311;DHT22;45078;51.654;21.250;2022-12-18T10:40:58;-2.90;99.90
59311;DHT22;45078;51.654;21.250;2022-12-18T10:43:26;-2.90;99.90
59311;DHT22;45078;51.654;21.250;2022-12-18T10:51:06;-3.10;99.90
59311;DHT22;45078;51.654;21.250;2022-12-18T10:53:34;-3.20;99.90
59311;DHT22;45078;51.654;21.250;2022-12-18T10:56:03;-3.10;99.90
59311;DHT22;45078;51.654;21.250;2022-12-18T10:58:35;-3.10;99.90
59311;DHT22;45078;51.654;21.250;2022-12-18T11:01:17;-3.10;99.90
59311;DHT22;45078;51.654;21.250;2022-12-18T11:03:58;-3.10;99.90
59311;DHT22;45078;51.654;21.250;2022-12-18T11:06:25;-3.10;99.90
59311;DHT22;45078;51.654;21.250;2022-12-18T11:09:08;-3.00;99.90
59311;DHT22;45078;51.654;21.250;2022-12-18T11:11:52;-3.00;99.90
59311;DHT22;45078;51.654;21.250;2022-12-18T11:14:25;-2.90;99.90
59311;DHT22;45078;51.654;21.250;2022-12-18T11:16:52;-2.70;99.90
59311;DHT22;45078;51.654;21.250;2022-12-18T11:27:38;-2.90;99.90
59311;DHT22;45078;51.654;21.250;2022-12-18T11:30:25;-2.80;99.90
59311;DHT22;45078;51.654;21.250;2022-12-18T11:33:15;-2.80;99.90
59311;DHT22;45078;51.654;21.250;2022-12-18T11:35:50;-2.90;99.90
59311;DHT22;45078;51.654;21.250;2022-12-18T11:38:23;-2.80;99.90
59311;DHT22;45078;51.654;21.250;2022-12-18T11:43:55;-2.90;99.90
59311;DHT22;45078;51.654;21.250;2022-12-18T11:46:32;-2.80;99.90
59311;DHT22;45078;51.654;21.250;2022-12-18T11:49:07;-2.70;99.90
59311;DHT22;45078;51.654;21.250;2022-12-18T11:54:28;-2.80;99.90
59311;DHT22;45078;51.654;21.250;2022-12-18T12:00:13;-2.70;99.90
59311;DHT22;45078;51.654;21.250;2022-12-18T12:03:09;-2.70;99.90
59311;DHT22;45078;51.654;21.250;2022-12-18T12:09:17;-2.60;99.90
59311;DHT22;45078;51.654;21.250;2022-12-18T12:11:32;-2.40;99.90
59311;DHT22;45078;51.654;21.250;2022-12-18T12:39:13;-2.80;99.90
59311;DHT22;45078;51.654;21.250;2022-12-18T12:41:42;-2.80;99.90
59311;DHT22;45078;51.654;21.250;2022-12-18T12:44:43;-2.90;99.90
59311;DHT22;45078;51.654;21.250;2022-12-18T12:47:35;-3.00;99.90
59311;DHT22;45078;51.654;21.250;2022-12-18T12:50:13;-3.10;99.90
59311;DHT22;45078;51.654;21.250;2022-12-18T12:52:46;-3.10;99.90
59311;DHT22;45078;51.654;21.250;2022-12-18T12:55:26;-3.20;99.90
59311;DHT22;45078;51.654;21.250;2022-12-18T13:04:27;-3.40;99.90
59311;DHT22;45078;51.654;21.250;2022-12-18T13:07:16;-3.40;99.90
59311;DHT22;45078;51.654;21.250;2022-12-18T13:12:55;-3.40;99.90
59311;DHT22;45078;51.654;21.250;2022-12-18T13:15:24;-3.40;99.90
59311;DHT22;45078;51.654;21.250;2022-12-18T13:20:39;-3.40;99.90
59311;DHT22;45078;51.654;21.250;2022-12-18T13:25:54;-3.50;99.90
59311;DHT22;45078;51.654;21.250;2022-12-18T13:40:02;-3.60;99.90
59311;DHT22;45078;51.654;21.250;2022-12-18T13:42:37;-3.60;99.90
59311;DHT22;45078;51.654;21.250;2022-12-18T13:45:41;-3.60;99.90
59311;DHT22;45078;51.654;21.250;2022-12-18T13:48:27;-3.60;99.90
59311;DHT22;45078;51.654;21.250;2022-12-18T13:51:09;-3.60;99.90
59311;DHT22;45078;51.654;21.250;2022-12-18T13:53:46;-3.60;99.90
59311;DHT22;45078;51.654;21.250;2022-12-18T13:56:23;-3.60;99.90
59311;DHT22;45078;51.654;21.250;2022-12-18T13:59:15;-3.70;99.90
59311;DHT22;45078;51.654;21.250;2022-12-18T14:01:53;-3.70;99.90
59311;DHT22;45078;51.654;21.250;2022-12-18T14:04:23;-3.70;99.90
59311;DHT22;45078;51.654;21.250;2022-12-18T14:07:03;-3.70;99.90
59311;DHT22;45078;51.654;21.250;2022-12-18T14:09:34;-3.70;99.90
59311;DHT22;45078;51.654;21.250;2022-12-18T14:12:01;-3.70;99.90
59311;DHT22;45078;51.654;21.250;2022-12-18T14:14:48;-3.70;99.90
59311;DHT22;45078;51.654;21.250;2022-12-18T14:17:16;-3.70;99.90
59311;DHT22;45078;51.654;21.250;2022-12-18T14:19:47;-3.80;99.90
59311;DHT22;45078;51.654;21.250;2022-12-18T14:22:22;-3.80;99.90
59311;DHT22;45078;51.654;21.250;2022-12-18T14:25:26;-3.80;99.90
59311;DHT22;45078;51.654;21.250;2022-12-18T14:28:14;-3.80;99.90
59311;DHT22;45078;51.654;21.250;2022-12-18T14:30:42;-3.80;99.90
59311;DHT22;45078;51.654;21.250;2022-12-18T14:33:14;-3.80;99.90
59311;DHT22;45078;51.654;21.250;2022-12-18T14:35:55;-3.90;99.90
59311;DHT22;45078;51.654;21.250;2022-12-18T14:41:01;-4.00;99.90
59311;DHT22;45078;51.654;21.250;2022-12-18T14:43:32;-4.00;99.90
59311;DHT22;45078;51.654;21.250;2022-12-18T14:45:58;-4.00;99.90
59311;DHT22;45078;51.654;21.250;2022-12-18T14:48:40;-4.00;99.90
59311;DHT22;45078;51.654;21.250;2022-12-18T14:53:42;-4.00;99.90
59311;DHT22;45078;51.654;21.250;2022-12-18T14:58:51;-3.90;99.90
59311;DHT22;45078;51.654;21.250;2022-12-18T15:01:30;-3.90;99.90
59311;DHT22;45078;51.654;21.250;2022-12-18T15:03:59;-3.90;99.90
59311;DHT22;45078;51.654;21.250;2022-12-18T15:08:59;-3.80;99.90
59311;DHT22;45078;51.654;21.250;2022-12-18T15:11:36;-3.90;99.90
59311;DHT22;45078;51.654;21.250;2022-12-18T15:14:40;-4.00;99.90
59311;DHT22;45078;51.654;21.250;2022-12-18T15:17:18;-3.90;99.90
59311;DHT22;45078;51.654;21.250;2022-12-18T15:19:46;-4.00;99.90
59311;DHT22;45078;51.654;21.250;2022-12-18T15:22:35;-4.00;99.90
59311;DHT22;45078;51.654;21.250;2022-12-18T15:25:02;-3.90;99.90
59311;DHT22;45078;51.654;21.250;2022-12-18T15:27:34;-4.00;99.90
59311;DHT22;45078;51.654;21.250;2022-12-18T15:32:35;-4.00;99.90
59311;DHT22;45078;51.654;21.250;2022-12-18T15:35:22;-4.00;99.90
59311;DHT22;45078;51.654;21.250;2022-12-18T15:37:49;-4.10;99.90
59311;DHT22;45078;51.654;21.250;2022-12-18T15:40:22;-4.10;99.90
59311;DHT22;45078;51.654;21.250;2022-12-18T15:42:52;-4.10;99.90
59311;DHT22;45078;51.654;21.250;2022-12-18T15:45:38;-4.20;99.90
59311;DHT22;45078;51.654;21.250;2022-12-18T15:48:18;-4.20;99.90
59311;DHT22;45078;51.654;21.250;2022-12-18T15:50:45;-4.20;99.90
59311;DHT22;45078;51.654;21.250;2022-12-18T15:53:11;-4.20;99.90
59311;DHT22;45078;51.654;21.250;2022-12-18T15:55:37;-4.20;99.90
59311;DHT22;45078;51.654;21.250;2022-12-18T15:58:21;-4.20;99.90
59311;DHT22;45078;51.654;21.250;2022-12-18T16:00:48;-4.20;99.90
59311;DHT22;45078;51.654;21.250;2022-12-18T16:03:14;-4.20;99.90
59311;DHT22;45078;51.654;21.250;2022-12-18T16:05:40;-4.20;99.90
59311;DHT22;45078;51.654;21.250;2022-12-18T16:08:06;-4.20;99.90
59311;DHT22;45078;51.654;21.250;2022-12-18T16:10:32;-4.10;99.90
59311;DHT22;45078;51.654;21.250;2022-12-18T16:12:58;-4.10;99.90
59311;DHT22;45078;51.654;21.250;2022-12-18T16:15:24;-4.20;99.90
59311;DHT22;45078;51.654;21.250;2022-12-18T16:17:50;-4.10;99.90
59311;DHT22;45078;51.654;21.250;2022-12-18T16:20:19;-4.00;99.90
59311;DHT22;45078;51.654;21.250;2022-12-18T16:22:47;-4.10;99.90
59311;DHT22;45078;51.654;21.250;2022-12-18T16:25:22;-4.10;99.90
59311;DHT22;45078;51.654;21.250;2022-12-18T16:27:50;-4.10;99.90
59311;DHT22;45078;51.654;21.250;2022-12-18T16:30:19;-4.10;99.90
59311;DHT22;45078;51.654;21.250;2022-12-18T16:32:46;-4.20;99.90
59311;DHT22;45078;51.654;21.250;2022-12-18T16:35:13;-4.20;99.90
59311;DHT22;45078;51.654;21.250;2022-12-18T16:37:40;-4.30;99.90
59311;DHT22;45078;51.654;21.250;2022-12-18T16:40:09;-4.20;99.90
59311;DHT22;45078;51.654;21.250;2022-12-18T16:42:37;-4.20;99.90
59311;DHT22;45078;51.654;21.250;2022-12-18T16:45:04;-4.40;99.90
59311;DHT22;45078;51.654;21.250;2022-12-18T16:47:32;-4.50;99.90
59311;DHT22;45078;51.654;21.250;2022-12-18T16:49:58;-4.50;99.90
59311;DHT22;45078;51.654;21.250;2022-12-18T16:52:25;-4.50;99.90
59311;DHT22;45078;51.654;21.250;2022-12-18T16:54:51;-4.50;99.90
59311;DHT22;45078;51.654;21.250;2022-12-18T16:57:18;-4.50;99.90
59311;DHT22;45078;51.654;21.250;2022-12-18T16:59:45;-4.50;99.90
59311;DHT22;45078;51.654;21.250;2022-12-18T17:02:19;-4.50;99.90
59311;DHT22;45078;51.654;21.250;2022-12-18T17:04:45;-4.60;99.90
59311;DHT22;45078;51.654;21.250;2022-12-18T17:07:13;-4.50;99.90
59311;DHT22;45078;51.654;21.250;2022-12-18T17:09:40;-4.50;99.90
59311;DHT22;45078;51.654;21.250;2022-12-18T17:12:07;-4.50;99.90
59311;DHT22;45078;51.654;21.250;2022-12-18T17:14:34;-4.50;99.90
59311;DHT22;45078;51.654;21.250;2022-12-18T17:17:01;-4.50;99.90
59311;DHT22;45078;51.654;21.250;2022-12-18T17:19:27;-4.50;99.90
59311;DHT22;45078;51.654;21.250;2022-12-18T17:21:55;-4.40;99.90
59311;DHT22;45078;51.654;21.250;2022-12-18T17:24:22;-4.50;99.90
59311;DHT22;45078;51.654;21.250;2022-12-18T17:26:48;-4.60;99.90
59311;DHT22;45078;51.654;21.250;2022-12-18T17:29:17;-4.60;99.90
59311;DHT22;45078;51.654;21.250;2022-12-18T17:31:43;-4.70;99.90
59311;DHT22;45078;51.654;21.250;2022-12-18T17:34:10;-4.70;99.90
59311;DHT22;45078;51.654;21.250;2022-12-18T17:36:37;-4.80;99.90
59311;DHT22;45078;51.654;21.250;2022-12-18T17:39:04;-4.70;99.90
59311;DHT22;45078;51.654;21.250;2022-12-18T17:41:31;-4.70;99.90
59311;DHT22;45078;51.654;21.250;2022-12-18T17:44:00;-4.70;99.90
59311;DHT22;45078;51.654;21.250;2022-12-18T17:46:28;-4.70;99.90
59311;DHT22;45078;51.654;21.250;2022-12-18T17:48:59;-4.80;99.90
59311;DHT22;45078;51.654;21.250;2022-12-18T17:51:27;-4.70;99.90
59311;DHT22;45078;51.654;21.250;2022-12-18T17:53:53;-4.70;99.90
59311;DHT22;45078;51.654;21.250;2022-12-18T17:56:21;-4.70;99.90